Time;durP1;ratioP1;P1;durP2;ratioP2;P2;SDS_P1;SDS_P2;PMS_P1;PMS_P2;Temp;Humidity;BMP_temperature;BMP_pressure;BME280_temperature;BME280_humidity;BME280_pressure;Samples;Min_cycle;Max_cycle;Signal;HPM_P1;HPM_P2
2023/07/07 00:02:05;;;;;;;7.17;2.77;;;;;;;16.36;57.49;150180.00;5036504;28;20731;-59
2023/07/07 00:04:58;;;;;;;3.80;2.53;;;;;;;16.47;56.90;150207.44;5034720;28;20238;-60
2023/07/07 00:07:24;;;;;;;7.50;2.53;;;;;;;16.47;56.46;150207.44;5033352;28;20252;-60
2023/07/07 00:09:51;;;;;;;4.73;2.90;;;;;;;16.54;55.92;150223.72;5034138;28;20241;-60
2023/07/07 00:12:18;;;;;;;4.63;2.33;;;;;;;16.52;56.75;150219.94;5034776;28;20227;-60
2023/07/07 00:14:44;;;;;;;11.40;2.80;;;;;;;16.48;56.62;150209.94;5031223;28;22422;-59
2023/07/07 00:17:15;;;;;;;6.83;2.97;;;;;;;16.45;56.58;150201.22;5037994;28;20223;-59
2023/07/07 00:19:43;;;;;;;4.17;2.47;;;;;;;16.47;56.44;150207.44;5033241;28;20211;-60
2023/07/07 00:22:12;;;;;;;6.43;2.90;;;;;;;16.43;57.02;150197.44;5033649;28;20234;-60
2023/07/07 00:24:38;;;;;;;5.17;2.33;;;;;;;16.43;56.61;150196.22;5028641;28;20227;-59
2023/07/07 00:27:06;;;;;;;5.00;2.70;;;;;;;16.37;56.60;150182.50;5035712;28;20683;-60
2023/07/07 00:29:38;;;;;;;3.83;2.63;;;;;;;16.34;56.55;150176.22;5033825;28;20331;-59
2023/07/07 00:32:05;;;;;;;5.60;2.70;;;;;;;16.33;56.37;150172.50;5036365;28;20767;-60
2023/07/07 00:34:35;;;;;;;3.77;2.47;;;;;;;16.35;56.00;150177.50;5044029;28;20228;-57
2023/07/07 00:37:02;;;;;;;6.63;3.00;;;;;;;16.31;56.70;150168.72;5030417;28;20246;-59
2023/07/07 00:39:30;;;;;;;4.77;2.60;;;;;;;16.24;56.57;150151.22;5030397;28;20292;-60
2023/07/07 00:41:57;;;;;;;6.80;2.63;;;;;;;16.17;57.49;150135.00;5028208;28;20308;-59
2023/07/07 00:44:28;;;;;;;5.17;2.60;;;;;;;16.16;56.99;150131.22;5031137;28;20241;-60
2023/07/07 00:46:55;;;;;;;5.00;2.63;;;;;;;16.18;56.99;150136.22;5027336;28;20233;-59
2023/07/07 00:49:24;;;;;;;5.20;2.63;;;;;;;16.22;57.09;150146.22;5035898;28;20241;-59
2023/07/07 00:51:56;;;;;;;3.67;2.50;;;;;;;16.33;56.56;150172.50;5046636;28;20628;-58
2023/07/07 00:54:27;;;;;;;6.20;2.77;;;;;;;16.37;55.92;150183.72;5035516;28;20811;-59
2023/07/07 00:56:56;;;;;;;6.53;2.93;;;;;;;16.39;55.44;150187.50;5026873;28;20243;-59
2023/07/07 00:59:26;;;;;;;3.53;2.70;;;;;;;16.35;56.33;150178.72;5034923;28;20232;-59
2023/07/07 01:01:57;;;;;;;4.57;2.60;;;;;;;16.39;55.84;150187.50;5032023;28;20239;-59
2023/07/07 01:04:25;;;;;;;6.17;2.70;;;;;;;16.35;55.96;150178.72;5034446;28;20242;-59
2023/07/07 01:06:58;;;;;;;3.77;2.67;;;;;;;16.34;56.58;150176.22;5032874;28;20295;-59
2023/07/07 01:09:25;;;;;;;3.77;2.50;;;;;;;16.36;56.69;150180.00;5047603;28;20228;-59
2023/07/07 01:11:51;;;;;;;5.13;2.60;;;;;;;16.38;55.91;150186.22;5029463;28;20241;-59
2023/07/07 01:14:22;;;;;;;3.97;2.50;;;;;;;16.38;56.44;150186.22;5034964;28;20225;-59
2023/07/07 01:17:01;;;;;;;4.47;2.50;;;;;;;16.36;55.80;150180.00;5028669;28;20255;-59
2023/07/07 01:19:59;;;;;;;4.43;2.80;;;;;;;16.37;56.53;150183.72;5031458;28;20320;-58
2023/07/07 01:22:47;;;;;;;6.87;3.20;;;;;;;16.35;56.79;150178.72;5032178;28;20281;-58
2023/07/07 01:25:28;;;;;;;4.57;2.67;;;;;;;16.24;56.89;150151.22;5027023;28;20722;-58
2023/07/07 01:28:31;;;;;;;4.47;2.27;;;;;;;16.23;56.91;150148.72;5030012;28;20235;-59
2023/07/07 01:31:03;;;;;;;4.03;2.53;;;;;;;16.24;55.80;150151.22;5047993;28;20757;-59
2023/07/07 01:33:32;;;;;;;3.80;2.50;;;;;;;16.30;55.67;150165.00;5031011;28;20293;-59
2023/07/07 01:35:59;;;;;;;4.37;2.63;;;;;;;16.27;56.53;150158.72;5033188;28;20224;-59
2023/07/07 01:38:35;;;;;;;5.03;2.30;;;;;;;16.22;57.29;150147.50;5030682;28;20223;-59
2023/07/07 01:41:16;;;;;;;6.80;2.70;;;;;;;16.18;59.97;150136.22;5035324;28;20242;-59
2023/07/07 01:43:50;;;;;;;5.23;2.30;;;;;;;16.11;60.31;150120.00;5046227;28;20613;-59
2023/07/07 01:46:27;;;;;;;5.40;3.17;;;;;;;15.96;61.47;150082.50;5037049;28;20235;-59
2023/07/07 01:49:01;;;;;;;3.83;2.33;;;;;;;15.84;61.17;150053.72;5033037;28;20586;-59
2023/07/07 01:51:43;;;;;;;4.60;2.67;;;;;;;15.74;61.51;150031.22;5032352;28;20311;-59
2023/07/07 01:54:13;;;;;;;7.33;2.60;;;;;;;15.62;61.12;150002.47;5034733;28;20223;-59
2023/07/07 01:56:43;;;;;;;6.60;2.97;;;;;;;15.58;61.76;149991.25;5030906;28;20287;-59
2023/07/07 01:59:10;;;;;;;4.17;2.37;;;;;;;15.54;61.69;149981.25;5028637;28;20231;-59
2023/07/07 02:01:39;;;;;;;6.43;2.70;;;;;;;15.53;60.82;149978.75;5028040;28;20715;-59
2023/07/07 02:04:05;;;;;;;5.07;2.90;;;;;;;15.52;61.97;149976.25;5024488;28;20262;-59
2023/07/07 02:06:32;;;;;;;3.87;2.90;;;;;;;15.44;61.85;149958.75;5026126;28;20225;-59
2023/07/07 02:08:58;;;;;;;4.03;2.53;;;;;;;15.48;61.03;149967.47;5036449;28;20239;-59
2023/07/07 02:11:25;;;;;;;7.23;2.90;;;;;;;15.47;61.56;149966.25;5049766;28;20242;-59
2023/07/07 02:13:51;;;;;;;4.13;2.80;;;;;;;15.48;61.30;149968.75;5034744;28;20223;-59
2023/07/07 02:16:18;;;;;;;4.63;2.40;;;;;;;15.50;60.87;149973.75;5035726;28;20224;-59
2023/07/07 02:18:48;;;;;;;5.43;2.70;;;;;;;15.60;61.04;149997.47;5037206;28;22815;-59
2023/07/07 02:21:15;;;;;;;3.93;2.93;;;;;;;15.66;59.55;150011.25;5038376;28;20303;-59
2023/07/07 02:23:42;;;;;;;4.17;2.47;;;;;;;15.70;59.33;150021.22;5028922;28;20231;-59
2023/07/07 02:26:09;;;;;;;4.13;2.43;;;;;;;15.66;59.44;150011.25;5032953;28;20239;-59
2023/07/07 02:28:35;;;;;;;6.83;2.97;;;;;;;15.72;59.93;150024.97;5034018;28;20228;-59
2023/07/07 02:31:02;;;;;;;4.40;3.00;;;;;;;15.72;58.72;150024.97;5036673;28;20247;-59
2023/07/07 02:33:31;;;;;;;3.90;2.37;;;;;;;15.73;58.17;150028.72;5037776;28;20239;-59
2023/07/07 02:36:04;;;;;;;3.77;2.40;;;;;;;15.77;58.20;150037.47;5036992;28;20892;-58
2023/07/07 02:38:31;;;;;;;4.77;2.90;;;;;;;15.77;59.38;150038.72;5035491;28;20224;-59
2023/07/07 02:40:58;;;;;;;4.27;2.43;;;;;;;15.71;59.54;150022.47;5037666;28;20231;-58
2023/07/07 02:43:25;;;;;;;5.57;2.60;;;;;;;15.62;59.94;150001.25;5031007;28;20401;-58
2023/07/07 02:45:52;;;;;;;3.10;2.20;;;;;;;15.68;58.97;150016.22;5036170;28;20238;-59
2023/07/07 02:48:19;;;;;;;4.20;2.73;;;;;;;15.63;58.41;150003.75;5037565;28;20244;-58
2023/07/07 02:50:53;;;;;;;5.37;2.23;;;;;;;15.60;58.62;149997.47;5038270;28;20751;-58
2023/07/07 02:53:22;;;;;;;4.07;2.50;;;;;;;15.61;59.49;149999.97;5031932;28;20741;-59
2023/07/07 02:55:48;;;;;;;6.13;3.00;;;;;;;15.60;59.01;149997.47;5030536;28;20598;-58
2023/07/07 02:58:15;;;;;;;5.40;2.97;;;;;;;15.54;59.71;149982.47;5032343;28;20281;-58
2023/07/07 03:03:57;;;;;;;5.67;2.90;;;;;;;15.53;60.80;149978.75;5694287;23;20230;-59
2023/07/07 03:06:49;;;;;;;4.20;2.47;;;;;;;15.40;63.65;149948.75;4987349;28;20309;-58
2023/07/07 03:09:17;;;;;;;4.03;2.50;;;;;;;15.25;62.38;149911.28;4979455;28;20871;-58
2023/07/07 03:11:47;;;;;;;4.50;2.77;;;;;;;15.12;62.70;149880.06;5013021;28;20228;-59
2023/07/07 03:14:18;;;;;;;5.37;2.90;;;;;;;15.11;64.89;149877.56;5012961;28;20240;-58
2023/07/07 03:16:51;;;;;;;3.53;2.40;;;;;;;15.00;65.42;149851.31;5015484;28;20238;-58
2023/07/07 03:19:21;;;;;;;4.87;2.70;;;;;;;14.86;65.56;149817.63;5016805;28;20232;-59
2023/07/07 03:22:02;;;;;;;6.37;4.13;;;;;;;14.83;66.89;149810.13;5015994;28;20236;-59
2023/07/07 03:24:36;;;;;;;3.77;2.70;;;;;;;14.67;67.65;149772.63;5012727;28;20238;-59
2023/07/07 03:27:14;;;;;;;3.50;2.60;;;;;;;14.60;69.74;149756.41;5012412;28;20230;-59
2023/07/07 03:29:47;;;;;;;4.30;2.60;;;;;;;14.57;68.59;149747.63;5008487;28;20259;-59
2023/07/07 03:32:22;;;;;;;5.43;2.97;;;;;;;14.46;68.62;149722.66;5211519;22;20599;-59
2023/07/07 03:35:00;;;;;;;6.37;2.87;;;;;;;14.37;69.09;149698.97;4950319;28;20243;-59
2023/07/07 03:37:28;;;;;;;7.20;3.40;;;;;;;14.25;71.89;149670.28;4967783;28;20502;-60
2023/07/07 03:39:57;;;;;;;6.57;2.70;;;;;;;14.19;71.36;149655.28;5011861;28;20764;-57
2023/07/07 03:42:24;;;;;;;5.27;2.80;;;;;;;14.17;71.13;149651.53;4992139;28;20238;-58
2023/07/07 03:44:53;;;;;;;5.83;2.83;;;;;;;14.15;72.19;149646.53;5006801;28;20237;-58
2023/07/07 03:47:20;;;;;;;5.43;2.63;;;;;;;14.20;72.45;149659.00;4996355;28;20246;-59
2023/07/07 03:49:48;;;;;;;5.97;2.80;;;;;;;14.12;72.03;149640.31;5006786;28;20706;-59
2023/07/07 03:52:16;;;;;;;4.30;2.70;;;;;;;14.12;72.46;149639.03;4985970;28;20256;-59
2023/07/07 03:54:43;;;;;;;3.90;2.57;;;;;;;14.03;72.40;149617.84;5006179;28;20312;-58
2023/07/07 03:57:11;;;;;;;4.00;2.67;;;;;;;13.99;72.55;149607.84;5010352;28;20809;-58
2023/07/07 03:59:39;;;;;;;5.53;3.13;;;;;;;14.11;73.70;149636.53;4984397;28;20224;-59
2023/07/07 04:02:07;;;;;;;4.97;2.60;;;;;;;14.10;74.43;149634.03;4987187;28;20289;-58
2023/07/07 04:04:39;;;;;;;5.57;2.97;;;;;;;14.14;72.31;149644.03;4982896;28;20495;-59
2023/07/07 04:07:05;;;;;;;4.63;2.90;;;;;;;14.22;72.79;149664.00;4994937;28;20283;-59
2023/07/07 04:09:57;;;;;;;5.00;2.70;;;;;;;14.23;72.14;149666.50;4992935;28;20618;-58
2023/07/07 04:12:25;;;;;;;5.03;3.37;;;;;;;14.25;70.70;149670.28;4996628;28;20268;-59
2023/07/07 04:14:51;;;;;;;5.07;3.37;;;;;;;14.25;69.31;149671.50;4966440;28;20671;-59
2023/07/07 04:17:18;;;;;;;5.10;3.23;;;;;;;14.40;69.92;149707.69;4989530;28;20226;-59
2023/07/07 04:19:45;;;;;;;5.63;2.93;;;;;;;14.48;72.41;149726.44;4974076;28;22758;-58
2023/07/07 04:22:11;;;;;;;6.13;3.00;;;;;;;14.52;71.26;149735.16;4965453;28;20242;-59
2023/07/07 04:24:38;;;;;;;5.57;3.03;;;;;;;14.57;71.29;149747.63;4993834;28;20255;-60
2023/07/07 04:27:06;;;;;;;5.73;3.00;;;;;;;14.62;69.69;149760.13;4970771;28;20227;-59
2023/07/07 04:29:40;;;;;;;4.10;2.90;;;;;;;14.67;70.92;149771.38;4988749;28;20635;-59
2023/07/07 04:32:07;;;;;;;5.20;3.00;;;;;;;14.68;71.87;149775.13;4985626;28;20248;-59
2023/07/07 04:34:39;;;;;;;3.80;2.87;;;;;;;14.65;73.28;149766.41;4987499;28;20222;-60
2023/07/07 04:37:05;;;;;;;8.50;2.97;;;;;;;14.66;73.43;149770.13;4997645;28;20237;-59
2023/07/07 04:39:57;;;;;;;7.20;3.03;;;;;;;14.67;74.21;149771.38;4994861;28;21158;-59
2023/07/07 04:42:23;;;;;;;5.97;3.23;;;;;;;14.69;76.48;149777.66;4995367;28;20294;-59
2023/07/07 04:44:51;;;;;;;3.93;2.83;;;;;;;14.69;76.21;149777.66;4993298;28;20280;-59
2023/07/07 04:47:18;;;;;;;5.73;3.30;;;;;;;14.68;76.08;149775.13;4985750;28;20628;-58
2023/07/07 04:49:44;;;;;;;6.27;3.00;;;;;;;14.68;76.09;149775.13;4993113;28;20229;-59
2023/07/07 04:52:11;;;;;;;4.50;2.87;;;;;;;14.67;75.98;149771.38;4995585;28;20230;-60
2023/07/07 04:54:38;;;;;;;5.10;3.10;;;;;;;14.72;75.44;149783.94;4991916;28;20221;-59
2023/07/07 04:57:05;;;;;;;5.03;2.90;;;;;;;14.65;76.19;149767.63;4995666;28;20284;-59
2023/07/07 04:59:36;;;;;;;5.33;3.03;;;;;;;14.65;76.16;149766.41;4992098;28;20230;-59
2023/07/07 05:02:05;;;;;;;4.70;3.10;;;;;;;14.67;76.09;149771.38;4994383;28;20238;-59
2023/07/07 05:04:36;;;;;;;5.73;3.23;;;;;;;14.68;77.47;149773.88;4991777;28;20242;-59
2023/07/07 05:07:02;;;;;;;3.90;2.63;;;;;;;14.69;77.14;149777.66;4998101;28;20298;-58
2023/07/07 05:09:29;;;;;;;7.50;3.30;;;;;;;14.72;78.07;149783.94;4991406;28;20231;-60
2023/07/07 05:11:55;;;;;;;9.83;3.77;;;;;;;14.76;78.47;149793.91;4995718;28;20816;-60
2023/07/07 05:14:22;;;;;;;5.27;3.20;;;;;;;14.78;79.22;149798.91;4995924;28;20580;-59
2023/07/07 05:16:48;;;;;;;6.43;2.90;;;;;;;14.79;78.69;149800.13;4992877;28;20226;-58
2023/07/07 05:19:16;;;;;;;7.20;2.97;;;;;;;14.83;79.01;149811.41;4997426;28;20644;-60
2023/07/07 05:21:43;;;;;;;5.10;3.43;;;;;;;14.90;79.15;149828.84;4993772;28;20721;-59
2023/07/07 05:24:09;;;;;;;6.43;3.47;;;;;;;14.97;78.34;149845.09;4992812;28;20613;-58
2023/07/07 05:26:36;;;;;;;7.13;3.93;;;;;;;15.00;81.67;149851.31;4990997;28;20224;-59
2023/07/07 05:29:05;;;;;;;6.23;3.47;;;;;;;15.01;82.20;149855.09;4994610;28;20212;-60
2023/07/07 05:31:32;;;;;;;5.93;3.57;;;;;;;15.05;81.06;149863.81;4992663;28;20240;-59
2023/07/07 05:33:59;;;;;;;6.83;4.00;;;;;;;15.08;79.78;149871.31;4993181;28;20229;-60
2023/07/07 05:36:28;;;;;;;7.97;4.60;;;;;;;15.16;80.79;149891.28;4990615;28;20229;-60
2023/07/07 05:38:54;;;;;;;8.37;4.30;;;;;;;15.20;80.09;149901.28;4995163;28;20295;-60
2023/07/07 05:41:21;;;;;;;8.27;4.90;;;;;;;15.28;79.55;149920.06;4995152;28;20288;-59
2023/07/07 05:43:48;;;;;;;7.90;4.80;;;;;;;15.37;79.01;149941.28;4993867;28;20240;-59
2023/07/07 05:46:16;;;;;;;11.17;5.17;;;;;;;15.56;78.02;149986.25;4996942;28;20233;-59
2023/07/07 05:48:43;;;;;;;9.83;4.83;;;;;;;15.77;77.95;150038.72;4994392;28;20235;-59
2023/07/07 05:51:13;;;;;;;6.67;4.10;;;;;;;16.04;77.23;150102.50;4995078;28;20243;-59
2023/07/07 05:53:43;;;;;;;8.23;4.63;;;;;;;16.26;76.11;150155.00;4994462;28;20230;-59
2023/07/07 05:56:14;;;;;;;8.77;4.00;;;;;;;16.44;73.60;150198.72;4997499;28;20324;-59
2023/07/07 05:58:40;;;;;;;6.07;3.90;;;;;;;16.60;73.18;150238.72;4996295;28;20237;-60
2023/07/07 06:01:09;;;;;;;10.97;3.43;;;;;;;16.79;72.69;150283.75;4999249;28;20689;-60
2023/07/07 06:03:37;;;;;;;6.87;4.17;;;;;;;16.94;72.08;150319.97;4996544;28;20268;-60
2023/07/07 06:06:04;;;;;;;6.20;3.67;;;;;;;17.13;71.23;150365.06;4999896;28;20243;-60
2023/07/07 06:08:31;;;;;;;7.50;3.97;;;;;;;17.32;69.47;150412.56;4996393;28;20355;-60
2023/07/07 06:10:59;;;;;;;8.27;5.27;;;;;;;17.36;66.51;150422.59;4997147;28;20250;-60
2023/07/07 06:13:27;;;;;;;9.40;4.80;;;;;;;17.43;66.50;150437.59;4993611;28;20621;-60
2023/07/07 06:15:54;;;;;;;6.90;5.10;;;;;;;17.46;66.03;150446.31;4996539;28;20310;-59
2023/07/07 06:18:21;;;;;;;10.73;5.40;;;;;;;17.51;64.98;150458.84;4996032;28;20635;-59
2023/07/07 06:20:48;;;;;;;9.23;5.70;;;;;;;17.57;65.56;150472.56;4993688;28;20233;-60
2023/07/07 06:23:15;;;;;;;7.60;4.90;;;;;;;17.73;65.46;150511.38;4996121;28;20233;-60
2023/07/07 06:25:42;;;;;;;7.60;4.50;;;;;;;17.86;63.68;150542.63;4994972;28;20246;-60
2023/07/07 06:28:10;;;;;;;6.83;4.43;;;;;;;17.91;66.71;150553.91;4995659;28;20232;-58
2023/07/07 06:30:37;;;;;;;7.63;5.13;;;;;;;17.83;64.97;150536.41;4992094;28;20226;-58
2023/07/07 06:33:03;;;;;;;12.87;5.00;;;;;;;17.99;64.12;150575.22;4995655;28;20242;-58
2023/07/07 06:35:30;;;;;;;7.40;4.73;;;;;;;18.22;63.93;150630.28;4993614;28;20257;-61
2023/07/07 06:37:57;;;;;;;8.67;4.30;;;;;;;18.27;62.82;150641.50;4998386;28;20641;-58
2023/07/07 06:40:23;;;;;;;7.97;4.57;;;;;;;18.37;62.42;150666.56;4998554;28;20227;-58
2023/07/07 06:42:51;;;;;;;7.17;4.47;;;;;;;18.54;63.23;150707.88;4994474;28;20242;-58
2023/07/07 06:45:20;;;;;;;12.10;4.97;;;;;;;18.68;61.95;150740.38;4999204;28;20231;-58
2023/07/07 06:47:47;;;;;;;7.17;4.47;;;;;;;18.64;62.70;150731.63;4995082;28;20235;-59
2023/07/07 06:50:18;;;;;;;7.30;4.90;;;;;;;18.84;62.73;150779.22;4997949;28;20240;-61
2023/07/07 06:52:45;;;;;;;8.73;4.13;;;;;;;18.98;62.21;150814.31;4993627;28;20595;-61
2023/07/07 06:55:12;;;;;;;8.10;4.30;;;;;;;19.20;63.11;150865.63;4999013;28;20224;-61
2023/07/07 06:57:38;;;;;;;7.87;4.77;;;;;;;19.35;63.49;150903.19;4994819;28;20225;-58
2023/07/07 07:00:06;;;;;;;5.70;3.97;;;;;;;19.50;62.30;150939.47;4996732;28;20238;-58
2023/07/07 07:02:34;;;;;;;8.17;4.50;;;;;;;19.64;61.41;150972.06;4992333;28;20243;-59
2023/07/07 07:05:01;;;;;;;7.93;4.43;;;;;;;19.76;59.65;151003.34;4993043;28;20718;-58
2023/07/07 07:07:29;;;;;;;12.00;4.53;;;;;;;19.83;58.87;151019.66;4990070;28;20234;-59
2023/07/07 07:09:57;;;;;;;8.03;4.27;;;;;;;19.83;58.08;151019.66;4997044;28;20229;-58
2023/07/07 07:12:24;;;;;;;7.70;4.27;;;;;;;19.81;57.58;151014.63;4995719;28;20721;-58
2023/07/07 07:14:51;;;;;;;8.07;3.93;;;;;;;19.80;57.09;151012.13;4994349;28;20247;-59
2023/07/07 07:17:17;;;;;;;8.00;4.50;;;;;;;19.91;57.27;151039.75;4993961;28;20244;-58
2023/07/07 07:19:45;;;;;;;6.20;4.23;;;;;;;19.75;58.05;151000.84;4985794;28;20261;-58
2023/07/07 07:22:12;;;;;;;6.70;4.30;;;;;;;19.93;57.96;151043.47;4995993;28;20250;-58
2023/07/07 07:24:39;;;;;;;5.63;3.73;;;;;;;19.91;58.50;151039.75;4992328;28;20330;-58
2023/07/07 07:27:06;;;;;;;7.17;4.23;;;;;;;20.00;55.99;151059.78;4995703;28;20750;-58
2023/07/07 07:29:38;;;;;;;9.23;4.63;;;;;;;19.96;57.80;151051.00;4994395;28;20233;-58
2023/07/07 07:32:06;;;;;;;7.70;4.47;;;;;;;20.12;57.75;151088.56;4991476;28;20713;-58
2023/07/07 07:34:39;;;;;;;6.43;4.53;;;;;;;20.18;57.09;151104.84;4994137;28;20227;-58
2023/07/07 07:37:07;;;;;;;6.77;4.03;;;;;;;20.32;57.26;151138.69;4984088;28;20689;-58
2023/07/07 07:39:38;;;;;;;9.33;4.03;;;;;;;20.51;56.07;151183.78;4990777;28;20242;-58
2023/07/07 07:42:05;;;;;;;8.83;4.40;;;;;;;20.62;55.68;151210.09;4984114;28;20737;-58
2023/07/07 07:44:36;;;;;;;8.63;4.63;;;;;;;20.67;55.51;151222.63;4987906;28;20653;-58
2023/07/07 07:47:02;;;;;;;10.20;4.47;;;;;;;20.74;55.29;151238.88;4978319;28;20252;-58
2023/07/07 07:49:29;;;;;;;8.93;4.63;;;;;;;20.72;55.81;151235.16;4992150;28;20293;-58
2023/07/07 07:51:56;;;;;;;7.23;4.30;;;;;;;20.87;55.27;151271.53;4981949;28;20242;-58
2023/07/07 07:54:24;;;;;;;9.73;4.20;;;;;;;21.01;55.45;151304.09;4993913;28;20338;-58
2023/07/07 07:56:52;;;;;;;6.53;4.37;;;;;;;21.03;54.76;151309.13;4981015;28;20231;-58
2023/07/07 07:59:18;;;;;;;6.77;3.63;;;;;;;21.11;54.96;151327.94;4992088;28;20230;-58
2023/07/07 08:01:45;;;;;;;8.33;4.20;;;;;;;21.19;54.85;151348.00;4987897;28;20235;-59
2023/07/07 08:04:12;;;;;;;9.03;4.30;;;;;;;21.19;52.95;151348.00;4993833;28;20714;-57
2023/07/07 08:06:38;;;;;;;6.47;4.60;;;;;;;21.19;54.17;151349.25;4990107;28;20833;-57
2023/07/07 08:09:05;;;;;;;9.57;4.40;;;;;;;21.25;54.23;151363.00;4992313;28;20231;-59
2023/07/07 08:11:56;;;;;;;10.80;4.50;;;;;;;21.37;54.16;151391.88;4993195;28;20230;-58
2023/07/07 08:14:30;;;;;;;7.23;4.70;;;;;;;21.52;55.01;151428.19;4997416;28;20721;-59
2023/07/07 08:16:58;;;;;;;9.40;4.13;;;;;;;21.49;54.63;151420.66;4990096;28;20234;-61
2023/07/07 08:19:25;;;;;;;7.00;4.07;;;;;;;21.57;55.39;151439.50;4980221;28;20354;-59
2023/07/07 08:21:52;;;;;;;6.20;4.20;;;;;;;21.66;55.15;151462.13;4991033;28;20243;-60
2023/07/07 08:24:18;;;;;;;8.60;4.80;;;;;;;21.87;55.69;151513.50;4995161;28;20233;-60
2023/07/07 08:26:46;;;;;;;6.30;4.60;;;;;;;21.88;55.43;151514.75;4993158;28;20320;-60
2023/07/07 08:29:14;;;;;;;9.37;4.20;;;;;;;22.07;54.22;151561.16;4994662;28;20458;-60
2023/07/07 08:31:41;;;;;;;6.00;4.33;;;;;;;22.10;52.59;151569.91;4990430;28;20470;-59
2023/07/07 08:34:07;;;;;;;7.97;4.07;;;;;;;22.12;54.60;151574.94;4995207;28;20740;-60
2023/07/07 08:36:34;;;;;;;6.80;4.63;;;;;;;22.09;53.92;151567.41;4992760;28;20302;-60
2023/07/07 08:39:08;;;;;;;5.93;3.80;;;;;;;22.32;53.64;151621.31;4994000;28;20297;-60
2023/07/07 08:41:35;;;;;;;10.00;4.13;;;;;;;22.25;52.00;151606.31;4994624;28;20241;-59
2023/07/07 08:44:02;;;;;;;7.07;4.00;;;;;;;22.25;53.21;151606.31;4995485;28;20296;-60
2023/07/07 08:46:40;;;;;;;6.37;4.30;;;;;;;22.39;52.79;151638.88;4989780;28;20236;-60
2023/07/07 08:49:13;;;;;;;8.00;3.90;;;;;;;22.55;50.52;151677.84;4995651;28;20253;-59
2023/07/07 08:51:47;;;;;;;7.67;4.07;;;;;;;22.63;51.26;151696.63;4990365;28;20237;-60
2023/07/07 08:54:22;;;;;;;5.33;3.70;;;;;;;22.66;49.73;151705.44;4994795;28;20229;-60
2023/07/07 08:56:58;;;;;;;7.10;4.03;;;;;;;22.65;50.04;151701.66;4991617;28;20231;-59
2023/07/07 08:59:33;;;;;;;5.33;3.80;;;;;;;22.70;50.62;151714.19;4991442;28;20233;-60
2023/07/07 09:02:10;;;;;;;10.37;3.90;;;;;;;22.76;50.07;151728.03;4982187;28;20234;-60
2023/07/07 09:04:50;;;;;;;5.60;3.70;;;;;;;22.90;49.57;151761.88;4990256;28;20292;-59
2023/07/07 09:07:42;;;;;;;6.53;3.30;;;;;;;22.94;50.17;151773.16;4994855;28;20240;-60
2023/07/07 09:10:37;;;;;;;8.17;3.90;;;;;;;23.05;50.44;151799.53;4989538;28;20250;-60
2023/07/07 09:13:11;;;;;;;7.60;3.57;;;;;;;23.18;48.62;151829.63;4965871;28;20243;-60
2023/07/07 09:15:40;;;;;;;6.10;3.73;;;;;;;23.11;49.58;151814.56;4990281;28;20257;-60
2023/07/07 09:18:17;;;;;;;6.40;3.90;;;;;;;23.27;49.21;151852.28;4999012;28;20234;-60
2023/07/07 09:20:52;;;;;;;4.77;3.40;;;;;;;23.48;49.50;151902.44;4994712;28;20234;-61
2023/07/07 09:23:21;;;;;;;7.47;3.43;;;;;;;23.49;48.33;151906.22;4998507;28;20243;-60
2023/07/07 09:25:53;;;;;;;7.47;4.17;;;;;;;23.64;47.09;151941.34;4996565;28;20328;-60
2023/07/07 09:28:20;;;;;;;4.77;3.47;;;;;;;23.67;46.74;151950.13;4997691;28;20231;-60
2023/07/07 09:30:51;;;;;;;6.23;3.50;;;;;;;23.64;48.41;151941.34;4992775;28;20245;-60
2023/07/07 09:33:23;;;;;;;7.23;3.53;;;;;;;23.84;49.06;151990.28;4995936;28;20227;-60
2023/07/07 09:36:07;;;;;;;7.13;3.53;;;;;;;24.04;48.34;152039.28;4993082;28;20259;-60
2023/07/07 09:38:47;;;;;;;5.57;3.70;;;;;;;24.27;47.52;152095.81;4995420;28;20224;-60
2023/07/07 09:41:30;;;;;;;7.50;3.53;;;;;;;24.32;46.50;152108.34;4999217;28;20235;-61
2023/07/07 09:44:14;;;;;;;5.63;3.53;;;;;;;24.48;46.29;152145.97;4972913;28;20560;-61
2023/07/07 09:46:51;;;;;;;9.27;4.07;;;;;;;24.52;45.63;152156.03;4993795;28;20231;-61
2023/07/07 09:49:28;;;;;;;6.73;3.50;;;;;;;24.59;48.30;152172.38;4996684;28;20239;-61
2023/07/07 09:52:04;;;;;;;7.80;3.93;;;;;;;24.74;46.36;152208.81;4987663;28;20232;-61
2023/07/07 09:54:32;;;;;;;5.57;3.77;;;;;;;24.95;47.03;152260.28;4987154;28;20688;-61
2023/07/07 09:57:04;;;;;;;9.20;3.70;;;;;;;24.96;45.95;152261.56;4996077;28;20262;-61
2023/07/07 09:59:41;;;;;;;8.90;4.17;;;;;;;25.02;45.53;152276.66;4994404;28;20233;-61
2023/07/07 10:02:15;;;;;;;5.57;4.10;;;;;;;25.14;44.07;152305.50;4995415;28;20260;-62
2023/07/07 10:04:46;;;;;;;9.90;4.03;;;;;;;25.25;45.45;152331.91;4992946;28;20226;-63
2023/07/07 10:07:18;;;;;;;7.77;4.10;;;;;;;25.43;44.12;152377.16;4995577;28;20255;-62
2023/07/07 10:09:44;;;;;;;8.73;4.27;;;;;;;25.38;44.51;152363.31;4995523;28;20237;-62
2023/07/07 10:12:16;;;;;;;7.27;3.90;;;;;;;25.52;43.66;152397.25;4996097;28;20231;-62
2023/07/07 10:14:43;;;;;;;5.90;3.67;;;;;;;25.61;42.90;152421.16;4976905;28;20227;-62
2023/07/07 10:17:20;;;;;;;9.60;4.30;;;;;;;25.72;44.24;152446.28;4988927;28;20417;-62
2023/07/07 10:19:53;;;;;;;6.73;3.53;;;;;;;25.80;44.14;152466.38;4991802;28;20436;-62
2023/07/07 10:22:21;;;;;;;8.03;4.20;;;;;;;25.93;43.67;152499.06;4996998;28;20783;-62
2023/07/07 10:24:48;;;;;;;7.83;4.03;;;;;;;25.97;42.72;152506.59;4968810;28;20244;-62
2023/07/07 10:27:21;;;;;;;6.37;3.57;;;;;;;26.14;42.38;152549.31;4994236;28;20246;-62
2023/07/07 10:29:49;;;;;;;6.67;3.83;;;;;;;26.22;42.42;152569.44;4995050;28;20624;-62
2023/07/07 10:32:17;;;;;;;8.83;3.90;;;;;;;26.37;41.94;152605.91;4995888;28;20259;-61
2023/07/07 10:34:47;;;;;;;12.10;4.27;;;;;;;26.52;41.71;152641.06;4991531;28;20235;-60
2023/07/07 10:37:22;;;;;;;8.00;3.63;;;;;;;26.56;41.26;152649.88;4996980;28;20616;-61
2023/07/07 10:39:50;;;;;;;7.70;4.10;;;;;;;26.55;41.55;152647.34;4991674;28;20241;-61
2023/07/07 10:42:20;;;;;;;10.27;4.33;;;;;;;26.59;41.36;152658.66;4986087;28;20250;-61
2023/07/07 10:44:46;;;;;;;8.80;4.28;;;;;;;26.61;40.85;152662.44;4984912;28;20241;-61
2023/07/07 10:47:18;;;;;;;7.17;4.17;;;;;;;26.79;40.96;152706.41;4990790;28;20232;-60
2023/07/07 10:49:44;;;;;;;7.97;3.87;;;;;;;26.95;40.86;152746.69;4992448;28;20273;-60
2023/07/07 10:52:32;;;;;;;6.83;4.57;;;;;;;27.20;39.34;152807.06;4998407;28;20235;-60
2023/07/07 10:55:07;;;;;;;7.57;4.30;;;;;;;27.26;38.61;152820.84;4956296;28;20588;-61
2023/07/07 10:57:45;;;;;;;5.67;4.30;;;;;;;27.35;38.98;152843.50;4983546;28;20238;-60
2023/07/07 11:00:32;;;;;;;7.25;4.10;;;;;;;27.37;38.82;152847.28;4997861;28;20562;-60
2023/07/07 11:03:17;;;;;;;8.77;4.50;;;;;;;27.40;38.47;152856.06;4991052;28;20572;-60
2023/07/07 11:05:47;;;;;;;6.40;4.10;;;;;;;27.42;38.50;152859.88;4995491;28;20243;-60
2023/07/07 11:08:30;;;;;;;8.43;4.97;;;;;;;27.51;37.75;152881.28;4997499;28;20241;-61
2023/07/07 11:11:09;;;;;;;6.55;4.35;;;;;;;27.68;38.96;152922.75;4994129;28;20633;-60
2023/07/07 11:14:00;;;;;;;8.40;4.73;;;;;;;27.87;37.72;152969.31;4980820;28;20608;-60
2023/07/07 11:16:35;;;;;;;10.05;5.10;;;;;;;27.94;37.62;152985.63;4988123;28;20234;-60
2023/07/07 11:19:21;;;;;;;7.20;4.93;;;;;;;27.95;36.44;152988.16;4995029;28;20294;-60
2023/07/07 11:21:58;;;;;;;9.18;4.50;;;;;;;27.90;36.70;152976.84;4989939;28;20244;-60
2023/07/07 11:24:32;;;;;;;7.55;4.68;;;;;;;27.82;37.34;152957.97;4996849;28;20741;-60
2023/07/07 11:27:23;;;;;;;7.40;4.38;;;;;;;27.85;37.38;152965.50;4991354;28;20234;-60
2023/07/07 11:29:58;;;;;;;9.93;4.73;;;;;;;28.02;36.28;153004.53;4993048;28;20231;-60
2023/07/07 11:32:34;;;;;;;10.02;4.85;;;;;;;28.02;37.81;153005.78;4997600;28;20267;-60
2023/07/07 11:35:20;;;;;;;9.48;4.68;;;;;;;28.01;37.46;153002.00;4993330;28;20251;-60
2023/07/07 11:38:02;;;;;;;6.37;4.37;;;;;;;28.12;38.04;153030.97;4990724;28;20244;-59
2023/07/07 11:40:55;;;;;;;6.75;5.05;;;;;;;28.41;37.03;153101.44;4990181;28;20270;-61
2023/07/07 11:43:43;;;;;;;8.80;4.80;;;;;;;28.47;36.54;153114.00;4994415;28;20234;-60
2023/07/07 11:46:21;;;;;;;12.13;5.15;;;;;;;28.55;35.34;153135.38;4993067;28;20237;-60